createdAt,value
2017-03-02T00:01:43.343Z,0
2017-03-02T00:11:54.657Z,0
2017-03-02T00:22:06.049Z,0
2017-03-02T00:32:17.327Z,0
2017-03-02T00:42:28.647Z,0
2017-03-02T00:52:39.980Z,0
2017-03-02T01:02:51.294Z,0
2017-03-02T01:13:02.645Z,0
2017-03-02T01:23:14.011Z,0
2017-03-02T01:33:25.328Z,0
2017-03-02T01:43:36.576Z,0
2017-03-02T01:53:47.770Z,0
2017-03-02T02:03:59.084Z,0
2017-03-02T02:14:10.193Z,0
2017-03-02T02:24:21.351Z,0
2017-03-02T02:34:32.514Z,0
2017-03-02T02:44:43.671Z,0
2017-03-02T02:54:54.864Z,0
2017-03-02T03:05:05.961Z,0
2017-03-02T03:15:17.101Z,0
2017-03-02T03:25:28.255Z,0
2017-03-02T03:35:39.371Z,0
2017-03-02T03:45:50.618Z,0
2017-03-02T03:56:01.645Z,0
2017-03-02T04:06:12.786Z,0
2017-03-02T04:16:23.919Z,0
2017-03-02T04:26:35.063Z,0
2017-03-02T04:36:46.151Z,0
2017-03-02T04:46:57.258Z,0
2017-03-02T04:57:08.414Z,0
2017-03-02T05:07:19.582Z,0
2017-03-02T05:17:30.689Z,0
2017-03-02T05:27:41.746Z,0
2017-03-02T05:37:52.926Z,0
2017-03-02T05:48:04.072Z,8
2017-03-02T05:58:15.200Z,28
2017-03-02T06:08:26.395Z,128
2017-03-02T06:18:37.711Z,636
2017-03-02T06:28:48.751Z,1824
2017-03-02T06:38:59.905Z,2904
2017-03-02T06:49:11.047Z,4424
2017-03-02T06:59:22.106Z,4244
2017-03-02T07:09:33.158Z,4496
2017-03-02T07:19:44.165Z,6120
2017-03-02T07:29:55.146Z,4988
2017-03-02T07:40:08.092Z,5716
2017-03-02T07:50:17.099Z,4488
2017-03-02T08:00:28.074Z,2056
2017-03-02T08:10:39.289Z,2776
2017-03-02T08:31:01.934Z,8176
2017-03-02T08:41:13.225Z,6276
2017-03-02T08:51:24.460Z,7856
2017-03-02T09:01:35.761Z,7548
2017-03-02T09:11:47.110Z,8820
2017-03-02T09:21:58.527Z,5776
2017-03-02T09:32:09.869Z,6708
2017-03-02T09:42:21.252Z,9808
2017-03-02T09:52:32.469Z,12080
2017-03-02T10:02:43.634Z,9612
2017-03-02T10:12:54.823Z,13232
2017-03-02T10:23:06.009Z,7204
2017-03-02T10:33:17.282Z,5864
2017-03-02T10:43:28.750Z,9052
2017-03-02T10:53:40.095Z,12568
2017-03-02T11:03:51.140Z,18176
2017-03-02T11:14:02.211Z,14020
2017-03-02T11:24:13.090Z,16196
2017-03-02T11:34:23.954Z,13852
2017-03-02T11:44:34.607Z,9272
2017-03-02T11:54:45.424Z,10708
2017-03-02T12:04:56.212Z,16012
2017-03-02T12:15:06.820Z,7964
2017-03-02T12:25:17.502Z,19136
2017-03-02T12:35:28.113Z,18560
2017-03-02T12:45:38.761Z,20576
2017-03-02T12:55:49.252Z,24512
2017-03-02T13:05:59.667Z,11884
2017-03-02T13:16:10.135Z,24448
2017-03-02T13:26:20.542Z,21440
2017-03-02T13:36:30.932Z,10340
2017-03-02T13:46:41.454Z,24768
2017-03-02T13:56:51.962Z,34272
2017-03-02T14:07:02.312Z,48960
2017-03-02T14:17:12.622Z,56576
2017-03-02T14:27:22.693Z,21440
2017-03-02T14:37:32.767Z,12180
2017-03-02T14:47:43.167Z,9388
2017-03-02T14:57:53.791Z,4596
2017-03-02T15:08:04.644Z,13604
2017-03-02T15:18:15.577Z,8016
2017-03-02T15:28:26.518Z,8740
2017-03-02T15:38:37.478Z,5084
2017-03-02T15:48:48.491Z,3312
2017-03-02T15:58:59.521Z,1476
2017-03-02T16:09:10.614Z,9684
2017-03-02T16:19:21.616Z,6592
2017-03-02T16:29:32.617Z,2156
2017-03-02T16:39:43.778Z,2392
2017-03-02T16:49:54.827Z,1292
2017-03-02T17:00:05.955Z,512
2017-03-02T17:10:17.142Z,360
2017-03-02T17:20:28.320Z,36
2017-03-02T17:30:39.575Z,8
2017-03-02T17:40:50.758Z,0
2017-03-02T17:51:01.972Z,0
2017-03-02T18:01:13.171Z,0
2017-03-02T18:11:24.418Z,0
2017-03-02T18:21:35.695Z,0
2017-03-02T18:31:46.947Z,0
2017-03-02T18:41:58.231Z,0
2017-03-02T18:52:09.516Z,0
2017-03-02T19:02:20.862Z,0
2017-03-02T19:12:32.203Z,0
2017-03-02T19:22:43.533Z,0
2017-03-02T19:32:54.888Z,0
2017-03-02T19:43:06.222Z,0
2017-03-02T19:53:17.598Z,0
2017-03-02T20:03:28.979Z,0
2017-03-02T20:13:40.386Z,0
2017-03-02T20:23:51.740Z,0
2017-03-02T20:34:03.037Z,0
2017-03-02T20:44:14.371Z,0
2017-03-02T20:54:25.791Z,0
2017-03-02T21:04:37.012Z,0
2017-03-02T21:14:48.423Z,0
2017-03-02T21:24:59.632Z,0
2017-03-02T21:35:10.857Z,0
2017-03-02T21:45:22.115Z,0
2017-03-02T21:55:33.323Z,0
2017-03-02T22:05:44.533Z,0
2017-03-02T22:15:55.757Z,0
2017-03-02T22:26:07.036Z,0
2017-03-02T22:36:18.446Z,0
2017-03-02T22:46:29.879Z,0
2017-03-02T22:56:41.329Z,0
2017-03-02T23:06:52.786Z,0
2017-03-02T23:17:04.250Z,0
2017-03-02T23:27:15.754Z,0
2017-03-02T23:37:27.349Z,0
2017-03-02T23:47:38.938Z,0
2017-03-02T23:57:50.482Z,0
